Terminal Aerodrome Forecast
Issued by NWS

Home | Current Version | Previous Version | Text Only | Print | Product List | Glossary On
Versions: 1 2 3 4 5 6 7 8 9 10 11 12 13 14 15 16 17
403
FTUS44 KLZK 110855 AAB
TAFBPK
TAF AMD
KBPK 110855Z 1109/1206 16007KT P6SM OVC040 WS020/20045KT
     FM111500 17012KT P6SM VCSH OVC030
     FM120300 25002KT 5SM BR VCSH OVC010=

USA.gov is the U.S. government's official web portal to all federal, state and local government web resources and services.